Groton, Vermont
Current Conditions -  °F | °C
As of 8:51 AM on Thursday 23 Oct 2014 (Local Time) from KMPV Reporting Station
Overcast Overcast  
Wind Chill:   Ceiling: 1300
Heat Index:   Visibility: 10mi
Dew Point:   Wind: 12mph
Humidity: 86%   Direction: 350°N
Pressure: 29.94"   Gusts: NA
Location:  44.21°N, 72.2°W
Report Text: KMPV 231251Z AUTO 35010KT 10SM OVC013 06/04 A2994 RMK AO2 RAB05E17 SLP148 P0000 T00610039
Loading
Personal Weather Stations






























Interactive Weather Map
Tropical Storm Tracking
New forecast layout! Learn more

10-Day Weather Forecast

Advertisements
Track Severe Weather on mobile